sensor_id;sensor_type;location;lat;lon;timestamp;P1;durP1;ratioP1;P2;durP2;ratioP2
71769;SDS011;66386;52.122;5.420;2023-01-19T00:00:28;13.40;;;6.70;;
71769;SDS011;66386;52.122;5.420;2023-01-19T00:02:55;11.45;;;5.70;;
71769;SDS011;66386;52.122;5.420;2023-01-19T00:05:21;10.13;;;5.67;;
71769;SDS011;66386;52.122;5.420;2023-01-19T00:07:48;16.70;;;5.53;;
71769;SDS011;66386;52.122;5.420;2023-01-19T00:10:14;8.80;;;5.28;;
71769;SDS011;66386;52.122;5.420;2023-01-19T00:12:41;8.13;;;6.05;;
71769;SDS011;66386;52.122;5.420;2023-01-19T00:15:08;9.55;;;5.53;;
71769;SDS011;66386;52.122;5.420;2023-01-19T00:17:35;7.73;;;4.90;;
71769;SDS011;66386;52.122;5.420;2023-01-19T00:20:01;8.50;;;5.43;;
71769;SDS011;66386;52.122;5.420;2023-01-19T00:22:29;7.78;;;5.50;;
71769;SDS011;66386;52.122;5.420;2023-01-19T00:24:55;10.30;;;5.70;;
71769;SDS011;66386;52.122;5.420;2023-01-19T00:27:22;15.48;;;5.45;;
71769;SDS011;66386;52.122;5.420;2023-01-19T00:29:49;9.60;;;5.87;;
71769;SDS011;66386;52.122;5.420;2023-01-19T00:32:16;3.35;;;2.38;;
71769;SDS011;66386;52.122;5.420;2023-01-19T00:34:42;2.40;;;1.17;;
71769;SDS011;66386;52.122;5.420;2023-01-19T00:37:15;2.65;;;1.67;;
71769;SDS011;66386;52.122;5.420;2023-01-19T00:39:42;3.05;;;1.00;;
71769;SDS011;66386;52.122;5.420;2023-01-19T00:42:12;2.17;;;1.70;;
71769;SDS011;66386;52.122;5.420;2023-01-19T00:44:57;10.20;;;1.65;;
71769;SDS011;66386;52.122;5.420;2023-01-19T00:47:23;3.05;;;1.60;;
71769;SDS011;66386;52.122;5.420;2023-01-19T00:49:50;4.20;;;2.60;;
71769;SDS011;66386;52.122;5.420;2023-01-19T00:52:16;4.65;;;2.80;;
71769;SDS011;66386;52.122;5.420;2023-01-19T00:54:43;8.20;;;3.47;;
71769;SDS011;66386;52.122;5.420;2023-01-19T00:57:09;9.45;;;4.22;;
71769;SDS011;66386;52.122;5.420;2023-01-19T00:59:35;7.50;;;4.82;;
71769;SDS011;66386;52.122;5.420;2023-01-19T01:02:02;8.20;;;5.03;;
71769;SDS011;66386;52.122;5.420;2023-01-19T01:04:29;6.30;;;4.72;;
71769;SDS011;66386;52.122;5.420;2023-01-19T01:06:55;7.67;;;5.10;;
71769;SDS011;66386;52.122;5.420;2023-01-19T01:09:22;7.22;;;5.22;;
71769;SDS011;66386;52.122;5.420;2023-01-19T01:11:49;9.18;;;5.50;;
71769;SDS011;66386;52.122;5.420;2023-01-19T01:14:15;6.45;;;5.30;;
71769;SDS011;66386;52.122;5.420;2023-01-19T01:16:43;7.70;;;5.65;;
71769;SDS011;66386;52.122;5.420;2023-01-19T01:19:10;7.80;;;4.87;;
71769;SDS011;66386;52.122;5.420;2023-01-19T01:21:36;5.63;;;4.35;;
71769;SDS011;66386;52.122;5.420;2023-01-19T01:24:03;7.03;;;5.28;;
71769;SDS011;66386;52.122;5.420;2023-01-19T01:26:30;7.03;;;3.70;;
71769;SDS011;66386;52.122;5.420;2023-01-19T01:28:56;6.18;;;4.82;;
71769;SDS011;66386;52.122;5.420;2023-01-19T01:31:23;6.40;;;3.43;;
71769;SDS011;66386;52.122;5.420;2023-01-19T01:33:50;6.65;;;2.47;;
71769;SDS011;66386;52.122;5.420;2023-01-19T01:36:16;4.18;;;2.60;;
71769;SDS011;66386;52.122;5.420;2023-01-19T01:38:44;4.90;;;2.40;;
71769;SDS011;66386;52.122;5.420;2023-01-19T01:41:10;5.05;;;2.10;;
71769;SDS011;66386;52.122;5.420;2023-01-19T01:43:45;5.07;;;1.77;;
71769;SDS011;66386;52.122;5.420;2023-01-19T01:46:14;3.25;;;1.60;;
71769;SDS011;66386;52.122;5.420;2023-01-19T01:48:43;5.63;;;1.33;;
71769;SDS011;66386;52.122;5.420;2023-01-19T01:51:27;3.45;;;1.27;;
71769;SDS011;66386;52.122;5.420;2023-01-19T01:56:34;2.83;;;1.13;;
71769;SDS011;66386;52.122;5.420;2023-01-19T01:59:06;2.30;;;1.35;;
71769;SDS011;66386;52.122;5.420;2023-01-19T02:01:37;2.25;;;1.33;;
71769;SDS011;66386;52.122;5.420;2023-01-19T02:04:23;2.33;;;1.38;;
71769;SDS011;66386;52.122;5.420;2023-01-19T02:06:50;5.53;;;1.60;;
71769;SDS011;66386;52.122;5.420;2023-01-19T02:09:35;2.17;;;0.77;;
71769;SDS011;66386;52.122;5.420;2023-01-19T02:12:21;1.80;;;0.70;;
71769;SDS011;66386;52.122;5.420;2023-01-19T02:15:13;1.35;;;0.90;;
71769;SDS011;66386;52.122;5.420;2023-01-19T02:17:45;1.48;;;0.70;;
71769;SDS011;66386;52.122;5.420;2023-01-19T02:20:13;4.35;;;0.50;;
71769;SDS011;66386;52.122;5.420;2023-01-19T02:22:48;1.00;;;0.50;;
71769;SDS011;66386;52.122;5.420;2023-01-19T02:25:17;0.50;;;0.30;;
71769;SDS011;66386;52.122;5.420;2023-01-19T02:27:45;1.90;;;0.43;;
71769;SDS011;66386;52.122;5.420;2023-01-19T02:30:13;0.60;;;0.22;;
71769;SDS011;66386;52.122;5.420;2023-01-19T02:32:41;5.43;;;0.30;;
71769;SDS011;66386;52.122;5.420;2023-01-19T02:35:09;6.73;;;0.37;;
71769;SDS011;66386;52.122;5.420;2023-01-19T02:37:36;0.63;;;0.22;;
71769;SDS011;66386;52.122;5.420;2023-01-19T02:40:13;2.47;;;0.30;;
71769;SDS011;66386;52.122;5.420;2023-01-19T02:42:45;3.05;;;0.15;;
71769;SDS011;66386;52.122;5.420;2023-01-19T02:45:16;1.48;;;0.10;;
71769;SDS011;66386;52.122;5.420;2023-01-19T02:47:47;1.50;;;0.30;;
71769;SDS011;66386;52.122;5.420;2023-01-19T02:55:46;1.83;;;0.22;;
71769;SDS011;66386;52.122;5.420;2023-01-19T02:58:22;3.20;;;0.20;;
71769;SDS011;66386;52.122;5.420;2023-01-19T03:11:21;2.53;;;0.47;;
71769;SDS011;66386;52.122;5.420;2023-01-19T03:13:58;1.90;;;0.10;;
71769;SDS011;66386;52.122;5.420;2023-01-19T03:16:29;2.35;;;0.13;;
71769;SDS011;66386;52.122;5.420;2023-01-19T03:19:11;0.85;;;0.20;;
71769;SDS011;66386;52.122;5.420;2023-01-19T03:21:44;1.88;;;0.00;;
71769;SDS011;66386;52.122;5.420;2023-01-19T03:24:14;1.67;;;0.00;;
71769;SDS011;66386;52.122;5.420;2023-01-19T03:26:46;1.80;;;0.20;;
71769;SDS011;66386;52.122;5.420;2023-01-19T03:29:17;2.42;;;0.10;;
71769;SDS011;66386;52.122;5.420;2023-01-19T03:31:47;1.17;;;0.00;;
71769;SDS011;66386;52.122;5.420;2023-01-19T03:34:15;0.45;;;0.00;;
71769;SDS011;66386;52.122;5.420;2023-01-19T03:36:53;1.77;;;0.05;;
71769;SDS011;66386;52.122;5.420;2023-01-19T03:39:24;2.43;;;0.10;;
71769;SDS011;66386;52.122;5.420;2023-01-19T03:41:53;1.48;;;0.43;;
71769;SDS011;66386;52.122;5.420;2023-01-19T03:44:28;1.48;;;0.05;;
71769;SDS011;66386;52.122;5.420;2023-01-19T03:46:57;0.85;;;0.00;;
71769;SDS011;66386;52.122;5.420;2023-01-19T03:49:25;5.68;;;0.20;;
71769;SDS011;66386;52.122;5.420;2023-01-19T03:51:54;0.40;;;0.00;;
71769;SDS011;66386;52.122;5.420;2023-01-19T03:54:21;7.40;;;0.22;;
71769;SDS011;66386;52.122;5.420;2023-01-19T03:56:48;0.57;;;0.00;;
71769;SDS011;66386;52.122;5.420;2023-01-19T03:59:17;1.60;;;0.00;;
71769;SDS011;66386;52.122;5.420;2023-01-19T04:01:45;2.25;;;0.10;;
71769;SDS011;66386;52.122;5.420;2023-01-19T04:04:11;0.63;;;0.00;;
71769;SDS011;66386;52.122;5.420;2023-01-19T04:06:38;4.30;;;0.10;;
71769;SDS011;66386;52.122;5.420;2023-01-19T04:09:05;2.65;;;0.20;;
71769;SDS011;66386;52.122;5.420;2023-01-19T04:11:31;7.63;;;0.32;;
71769;SDS011;66386;52.122;5.420;2023-01-19T04:13:58;2.70;;;0.40;;
71769;SDS011;66386;52.122;5.420;2023-01-19T04:16:24;0.63;;;0.17;;
71769;SDS011;66386;52.122;5.420;2023-01-19T04:18:51;1.48;;;0.00;;
71769;SDS011;66386;52.122;5.420;2023-01-19T04:21:17;0.50;;;0.10;;
71769;SDS011;66386;52.122;5.420;2023-01-19T04:23:45;1.17;;;0.20;;
71769;SDS011;66386;52.122;5.420;2023-01-19T04:26:12;3.03;;;0.30;;
71769;SDS011;66386;52.122;5.420;2023-01-19T04:28:38;1.83;;;0.20;;
71769;SDS011;66386;52.122;5.420;2023-01-19T04:31:05;3.42;;;0.10;;
71769;SDS011;66386;52.122;5.420;2023-01-19T04:33:32;0.20;;;0.10;;
71769;SDS011;66386;52.122;5.420;2023-01-19T04:35:59;0.43;;;0.15;;
71769;SDS011;66386;52.122;5.420;2023-01-19T04:38:26;2.17;;;0.13;;
71769;SDS011;66386;52.122;5.420;2023-01-19T04:40:53;4.70;;;0.10;;
71769;SDS011;66386;52.122;5.420;2023-01-19T04:43:20;1.40;;;0.10;;
71769;SDS011;66386;52.122;5.420;2023-01-19T04:45:48;1.75;;;0.52;;
71769;SDS011;66386;52.122;5.420;2023-01-19T04:48:17;4.75;;;0.10;;
71769;SDS011;66386;52.122;5.420;2023-01-19T04:50:44;1.65;;;0.10;;
71769;SDS011;66386;52.122;5.420;2023-01-19T04:53:11;2.27;;;0.00;;
71769;SDS011;66386;52.122;5.420;2023-01-19T04:55:38;3.85;;;0.10;;
71769;SDS011;66386;52.122;5.420;2023-01-19T04:58:05;4.55;;;0.50;;
71769;SDS011;66386;52.122;5.420;2023-01-19T05:00:32;1.00;;;0.08;;
71769;SDS011;66386;52.122;5.420;2023-01-19T05:02:58;6.28;;;0.50;;
71769;SDS011;66386;52.122;5.420;2023-01-19T05:05:26;3.60;;;0.10;;
71769;SDS011;66386;52.122;5.420;2023-01-19T05:07:53;1.55;;;0.20;;
71769;SDS011;66386;52.122;5.420;2023-01-19T05:10:20;2.83;;;0.20;;
71769;SDS011;66386;52.122;5.420;2023-01-19T05:12:47;3.92;;;0.35;;
71769;SDS011;66386;52.122;5.420;2023-01-19T05:15:13;4.13;;;0.10;;
71769;SDS011;66386;52.122;5.420;2023-01-19T05:17:40;2.60;;;0.20;;
71769;SDS011;66386;52.122;5.420;2023-01-19T05:20:08;5.03;;;0.22;;
71769;SDS011;66386;52.122;5.420;2023-01-19T05:22:36;4.35;;;0.30;;
71769;SDS011;66386;52.122;5.420;2023-01-19T05:25:03;5.07;;;0.22;;
71769;SDS011;66386;52.122;5.420;2023-01-19T05:27:33;0.57;;;0.10;;
71769;SDS011;66386;52.122;5.420;2023-01-19T05:30:01;2.83;;;0.37;;
71769;SDS011;66386;52.122;5.420;2023-01-19T05:32:27;4.05;;;0.13;;
71769;SDS011;66386;52.122;5.420;2023-01-19T05:34:53;3.08;;;0.10;;
71769;SDS011;66386;52.122;5.420;2023-01-19T05:37:20;3.35;;;0.20;;
71769;SDS011;66386;52.122;5.420;2023-01-19T05:39:46;1.38;;;0.20;;
71769;SDS011;66386;52.122;5.420;2023-01-19T05:42:13;6.80;;;0.60;;
71769;SDS011;66386;52.122;5.420;2023-01-19T05:44:39;6.70;;;0.47;;
71769;SDS011;66386;52.122;5.420;2023-01-19T05:47:06;4.03;;;0.20;;
71769;SDS011;66386;52.122;5.420;2023-01-19T05:49:32;2.42;;;0.40;;
71769;SDS011;66386;52.122;5.420;2023-01-19T05:51:59;6.63;;;0.50;;
71769;SDS011;66386;52.122;5.420;2023-01-19T05:54:25;5.93;;;0.60;;
71769;SDS011;66386;52.122;5.420;2023-01-19T05:56:51;4.47;;;0.60;;
71769;SDS011;66386;52.122;5.420;2023-01-19T05:59:18;6.90;;;0.30;;
71769;SDS011;66386;52.122;5.420;2023-01-19T06:01:52;7.68;;;0.30;;
71769;SDS011;66386;52.122;5.420;2023-01-19T06:04:19;3.42;;;0.40;;
71769;SDS011;66386;52.122;5.420;2023-01-19T06:06:46;0.93;;;0.20;;
71769;SDS011;66386;52.122;5.420;2023-01-19T06:09:14;2.30;;;0.15;;
71769;SDS011;66386;52.122;5.420;2023-01-19T06:11:40;5.03;;;0.32;;
71769;SDS011;66386;52.122;5.420;2023-01-19T06:14:08;6.95;;;0.30;;
71769;SDS011;66386;52.122;5.420;2023-01-19T06:16:35;1.88;;;0.40;;
71769;SDS011;66386;52.122;5.420;2023-01-19T06:19:01;4.87;;;0.33;;
71769;SDS011;66386;52.122;5.420;2023-01-19T06:21:28;1.92;;;0.20;;
71769;SDS011;66386;52.122;5.420;2023-01-19T06:23:54;3.97;;;0.50;;
71769;SDS011;66386;52.122;5.420;2023-01-19T06:26:21;3.17;;;0.20;;
71769;SDS011;66386;52.122;5.420;2023-01-19T06:28:49;4.85;;;0.40;;
71769;SDS011;66386;52.122;5.420;2023-01-19T06:31:16;7.13;;;0.33;;
71769;SDS011;66386;52.122;5.420;2023-01-19T06:33:43;3.38;;;0.30;;
71769;SDS011;66386;52.122;5.420;2023-01-19T06:36:09;4.10;;;0.50;;
71769;SDS011;66386;52.122;5.420;2023-01-19T06:38:36;3.92;;;0.93;;
71769;SDS011;66386;52.122;5.420;2023-01-19T06:41:02;4.50;;;0.70;;
71769;SDS011;66386;52.122;5.420;2023-01-19T06:43:30;5.00;;;0.30;;
71769;SDS011;66386;52.122;5.420;2023-01-19T06:45:56;4.78;;;0.38;;
71769;SDS011;66386;52.122;5.420;2023-01-19T06:48:23;5.00;;;0.63;;
71769;SDS011;66386;52.122;5.420;2023-01-19T06:50:49;6.93;;;0.55;;
71769;SDS011;66386;52.122;5.420;2023-01-19T06:53:16;3.22;;;0.35;;
71769;SDS011;66386;52.122;5.420;2023-01-19T06:55:45;5.87;;;0.57;;
71769;SDS011;66386;52.122;5.420;2023-01-19T06:58:12;10.25;;;0.50;;
71769;SDS011;66386;52.122;5.420;2023-01-19T07:00:39;2.60;;;0.30;;
71769;SDS011;66386;52.122;5.420;2023-01-19T07:03:05;7.75;;;0.93;;
71769;SDS011;66386;52.122;5.420;2023-01-19T07:05:35;4.45;;;0.50;;
71769;SDS011;66386;52.122;5.420;2023-01-19T07:08:02;14.13;;;0.90;;
71769;SDS011;66386;52.122;5.420;2023-01-19T07:10:29;6.28;;;0.40;;
71769;SDS011;66386;52.122;5.420;2023-01-19T07:13:15;7.43;;;0.60;;
71769;SDS011;66386;52.122;5.420;2023-01-19T07:15:42;3.72;;;0.63;;
71769;SDS011;66386;52.122;5.420;2023-01-19T07:18:08;6.13;;;0.47;;
71769;SDS011;66386;52.122;5.420;2023-01-19T07:20:35;7.30;;;0.57;;
71769;SDS011;66386;52.122;5.420;2023-01-19T07:23:03;5.82;;;0.45;;
71769;SDS011;66386;52.122;5.420;2023-01-19T07:25:29;4.63;;;0.40;;
71769;SDS011;66386;52.122;5.420;2023-01-19T07:27:59;3.83;;;0.40;;
71769;SDS011;66386;52.122;5.420;2023-01-19T07:30:26;5.63;;;0.55;;
71769;SDS011;66386;52.122;5.420;2023-01-19T07:32:53;3.40;;;0.50;;
71769;SDS011;66386;52.122;5.420;2023-01-19T07:35:25;7.28;;;1.17;;
71769;SDS011;66386;52.122;5.420;2023-01-19T07:37:52;21.75;;;1.20;;
71769;SDS011;66386;52.122;5.420;2023-01-19T07:40:18;3.10;;;0.80;;
71769;SDS011;66386;52.122;5.420;2023-01-19T07:42:45;6.07;;;0.98;;
71769;SDS011;66386;52.122;5.420;2023-01-19T07:45:16;12.50;;;1.27;;
71769;SDS011;66386;52.122;5.420;2023-01-19T07:47:43;9.43;;;1.17;;
71769;SDS011;66386;52.122;5.420;2023-01-19T07:50:10;11.55;;;1.05;;
71769;SDS011;66386;52.122;5.420;2023-01-19T07:52:38;6.75;;;0.68;;
71769;SDS011;66386;52.122;5.420;2023-01-19T07:55:05;8.77;;;1.13;;
71769;SDS011;66386;52.122;5.420;2023-01-19T07:57:33;2.70;;;0.83;;
71769;SDS011;66386;52.122;5.420;2023-01-19T08:00:00;10.15;;;1.30;;
71769;SDS011;66386;52.122;5.420;2023-01-19T08:02:28;10.27;;;1.50;;
71769;SDS011;66386;52.122;5.420;2023-01-19T08:04:55;7.00;;;0.95;;
71769;SDS011;66386;52.122;5.420;2023-01-19T08:07:21;6.03;;;1.30;;
71769;SDS011;66386;52.122;5.420;2023-01-19T08:09:48;5.90;;;0.90;;
71769;SDS011;66386;52.122;5.420;2023-01-19T08:12:14;6.90;;;1.17;;
71769;SDS011;66386;52.122;5.420;2023-01-19T08:14:42;7.97;;;1.30;;
71769;SDS011;66386;52.122;5.420;2023-01-19T08:17:09;8.27;;;1.40;;
71769;SDS011;66386;52.122;5.420;2023-01-19T08:19:37;10.65;;;1.10;;
71769;SDS011;66386;52.122;5.420;2023-01-19T08:22:06;8.07;;;1.10;;
71769;SDS011;66386;52.122;5.420;2023-01-19T08:24:33;5.90;;;1.00;;
71769;SDS011;66386;52.122;5.420;2023-01-19T08:27:00;7.03;;;1.27;;
71769;SDS011;66386;52.122;5.420;2023-01-19T08:29:27;5.03;;;1.13;;
71769;SDS011;66386;52.122;5.420;2023-01-19T08:31:57;9.70;;;1.35;;
71769;SDS011;66386;52.122;5.420;2023-01-19T08:34:25;8.13;;;1.00;;
71769;SDS011;66386;52.122;5.420;2023-01-19T08:36:52;7.18;;;0.85;;
71769;SDS011;66386;52.122;5.420;2023-01-19T08:39:19;5.72;;;0.95;;
71769;SDS011;66386;52.122;5.420;2023-01-19T08:41:45;9.73;;;1.10;;
71769;SDS011;66386;52.122;5.420;2023-01-19T08:44:12;7.40;;;1.17;;
71769;SDS011;66386;52.122;5.420;2023-01-19T08:46:38;6.40;;;1.23;;
71769;SDS011;66386;52.122;5.420;2023-01-19T08:49:17;6.57;;;1.00;;
71769;SDS011;66386;52.122;5.420;2023-01-19T08:51:44;4.70;;;0.95;;
71769;SDS011;66386;52.122;5.420;2023-01-19T08:54:14;14.63;;;0.82;;
71769;SDS011;66386;52.122;5.420;2023-01-19T08:56:43;21.13;;;1.95;;
71769;SDS011;66386;52.122;5.420;2023-01-19T08:59:10;13.55;;;1.52;;
71769;SDS011;66386;52.122;5.420;2023-01-19T09:01:56;15.00;;;1.30;;
71769;SDS011;66386;52.122;5.420;2023-01-19T09:04:23;6.78;;;0.80;;
71769;SDS011;66386;52.122;5.420;2023-01-19T09:06:50;12.18;;;1.48;;
71769;SDS011;66386;52.122;5.420;2023-01-19T09:09:16;9.25;;;1.00;;
71769;SDS011;66386;52.122;5.420;2023-01-19T09:11:43;5.80;;;0.88;;
71769;SDS011;66386;52.122;5.420;2023-01-19T09:14:09;10.67;;;0.70;;
71769;SDS011;66386;52.122;5.420;2023-01-19T09:16:36;4.75;;;0.73;;
71769;SDS011;66386;52.122;5.420;2023-01-19T09:19:02;9.80;;;0.50;;
71769;SDS011;66386;52.122;5.420;2023-01-19T09:21:28;7.18;;;0.65;;
71769;SDS011;66386;52.122;5.420;2023-01-19T09:23:55;4.97;;;0.50;;
71769;SDS011;66386;52.122;5.420;2023-01-19T09:26:22;5.23;;;0.50;;
71769;SDS011;66386;52.122;5.420;2023-01-19T09:28:49;11.20;;;0.52;;
71769;SDS011;66386;52.122;5.420;2023-01-19T09:31:15;3.58;;;0.55;;
71769;SDS011;66386;52.122;5.420;2023-01-19T09:33:42;6.05;;;0.50;;
71769;SDS011;66386;52.122;5.420;2023-01-19T09:36:09;7.50;;;0.52;;
71769;SDS011;66386;52.122;5.420;2023-01-19T09:38:35;11.20;;;0.70;;
71769;SDS011;66386;52.122;5.420;2023-01-19T09:41:08;7.60;;;0.50;;
71769;SDS011;66386;52.122;5.420;2023-01-19T09:43:43;5.55;;;0.30;;
71769;SDS011;66386;52.122;5.420;2023-01-19T09:46:15;5.85;;;0.50;;
71769;SDS011;66386;52.122;5.420;2023-01-19T09:48:47;7.38;;;0.43;;
71769;SDS011;66386;52.122;5.420;2023-01-19T09:51:18;8.43;;;0.60;;
71769;SDS011;66386;52.122;5.420;2023-01-19T09:56:40;5.55;;;0.57;;
71769;SDS011;66386;52.122;5.420;2023-01-19T10:01:54;3.90;;;0.43;;
71769;SDS011;66386;52.122;5.420;2023-01-19T10:20:34;6.57;;;0.32;;
71769;SDS011;66386;52.122;5.420;2023-01-19T10:23:03;5.32;;;0.63;;
71769;SDS011;66386;52.122;5.420;2023-01-19T10:25:39;3.22;;;0.50;;
71769;SDS011;66386;52.122;5.420;2023-01-19T10:28:06;2.40;;;0.40;;
71769;SDS011;66386;52.122;5.420;2023-01-19T10:30:33;4.20;;;0.40;;
71769;SDS011;66386;52.122;5.420;2023-01-19T10:33:00;8.32;;;0.60;;
71769;SDS011;66386;52.122;5.420;2023-01-19T10:35:27;2.63;;;0.30;;
71769;SDS011;66386;52.122;5.420;2023-01-19T10:37:55;6.05;;;0.40;;
71769;SDS011;66386;52.122;5.420;2023-01-19T10:40:27;4.13;;;0.40;;
71769;SDS011;66386;52.122;5.420;2023-01-19T10:42:59;5.03;;;0.40;;
71769;SDS011;66386;52.122;5.420;2023-01-19T10:45:27;4.97;;;0.28;;
71769;SDS011;66386;52.122;5.420;2023-01-19T10:47:57;6.25;;;0.35;;
71769;SDS011;66386;52.122;5.420;2023-01-19T10:50:30;7.88;;;0.68;;
71769;SDS011;66386;52.122;5.420;2023-01-19T10:52:59;3.58;;;0.50;;
71769;SDS011;66386;52.122;5.420;2023-01-19T10:55:30;2.90;;;0.40;;
71769;SDS011;66386;52.122;5.420;2023-01-19T10:57:57;5.15;;;0.60;;
71769;SDS011;66386;52.122;5.420;2023-01-19T11:00:37;2.67;;;0.47;;
71769;SDS011;66386;52.122;5.420;2023-01-19T11:03:20;6.68;;;0.55;;
71769;SDS011;66386;52.122;5.420;2023-01-19T11:05:48;4.13;;;0.20;;
71769;SDS011;66386;52.122;5.420;2023-01-19T11:08:28;1.50;;;0.20;;
71769;SDS011;66386;52.122;5.420;2023-01-19T11:11:02;7.10;;;0.65;;
71769;SDS011;66386;52.122;5.420;2023-01-19T11:13:30;2.55;;;0.20;;
71769;SDS011;66386;52.122;5.420;2023-01-19T11:16:07;1.42;;;0.38;;
71769;SDS011;66386;52.122;5.420;2023-01-19T11:18:43;2.75;;;0.50;;
71769;SDS011;66386;52.122;5.420;2023-01-19T11:21:13;5.60;;;0.30;;
71769;SDS011;66386;52.122;5.420;2023-01-19T11:23:44;0.68;;;0.30;;
71769;SDS011;66386;52.122;5.420;2023-01-19T11:29:28;3.00;;;0.17;;
71769;SDS011;66386;52.122;5.420;2023-01-19T11:32:08;4.10;;;0.30;;
71769;SDS011;66386;52.122;5.420;2023-01-19T11:34:36;3.90;;;0.20;;
71769;SDS011;66386;52.122;5.420;2023-01-19T11:39:48;3.10;;;0.30;;
71769;SDS011;66386;52.122;5.420;2023-01-19T11:42:16;3.97;;;0.30;;
71769;SDS011;66386;52.122;5.420;2023-01-19T11:47:26;6.10;;;0.20;;
71769;SDS011;66386;52.122;5.420;2023-01-19T11:50:00;2.25;;;0.28;;
71769;SDS011;66386;52.122;5.420;2023-01-19T11:52:35;4.63;;;0.30;;
71769;SDS011;66386;52.122;5.420;2023-01-19T11:57:37;4.28;;;0.20;;
71769;SDS011;66386;52.122;5.420;2023-01-19T12:00:33;5.57;;;0.87;;
71769;SDS011;66386;52.122;5.420;2023-01-19T12:06:00;2.28;;;0.17;;
71769;SDS011;66386;52.122;5.420;2023-01-19T12:08:34;3.15;;;0.20;;
71769;SDS011;66386;52.122;5.420;2023-01-19T12:11:04;2.78;;;0.20;;
71769;SDS011;66386;52.122;5.420;2023-01-19T12:13:34;0.80;;;0.10;;
71769;SDS011;66386;52.122;5.420;2023-01-19T12:18:38;1.30;;;0.35;;
71769;SDS011;66386;52.122;5.420;2023-01-19T12:21:09;4.90;;;0.30;;
71769;SDS011;66386;52.122;5.420;2023-01-19T12:28:43;4.78;;;0.30;;
71769;SDS011;66386;52.122;5.420;2023-01-19T12:31:15;2.88;;;0.20;;
71769;SDS011;66386;52.122;5.420;2023-01-19T12:33:44;1.13;;;0.10;;
71769;SDS011;66386;52.122;5.420;2023-01-19T12:38:52;1.60;;;0.70;;
71769;SDS011;66386;52.122;5.420;2023-01-19T12:41:22;3.08;;;0.20;;
71769;SDS011;66386;52.122;5.420;2023-01-19T12:46:38;1.00;;;0.10;;
71769;SDS011;66386;52.122;5.420;2023-01-19T12:49:22;2.33;;;0.20;;
71769;SDS011;66386;52.122;5.420;2023-01-19T12:51:49;3.30;;;0.10;;
71769;SDS011;66386;52.122;5.420;2023-01-19T12:56:58;2.28;;;0.13;;
71769;SDS011;66386;52.122;5.420;2023-01-19T12:59:29;4.10;;;0.30;;
71769;SDS011;66386;52.122;5.420;2023-01-19T13:13:30;2.45;;;0.30;;
71769;SDS011;66386;52.122;5.420;2023-01-19T13:19:29;2.30;;;0.20;;
71769;SDS011;66386;52.122;5.420;2023-01-19T13:21:40;3.22;;;0.35;;
71769;SDS011;66386;52.122;5.420;2023-01-19T13:32:03;3.27;;;0.20;;
71769;SDS011;66386;52.122;5.420;2023-01-19T13:34:41;7.05;;;1.75;;
71769;SDS011;66386;52.122;5.420;2023-01-19T13:40:00;6.50;;;1.75;;
71769;SDS011;66386;52.122;5.420;2023-01-19T13:42:29;2.15;;;0.88;;
71769;SDS011;66386;52.122;5.420;2023-01-19T13:45:14;1.20;;;0.40;;
71769;SDS011;66386;52.122;5.420;2023-01-19T13:47:59;1.00;;;0.47;;
71769;SDS011;66386;52.122;5.420;2023-01-19T13:50:31;4.70;;;0.50;;
71769;SDS011;66386;52.122;5.420;2023-01-19T13:52:59;1.77;;;0.10;;
71769;SDS011;66386;52.122;5.420;2023-01-19T13:55:27;0.95;;;0.10;;
71769;SDS011;66386;52.122;5.420;2023-01-19T13:57:55;1.83;;;0.20;;
71769;SDS011;66386;52.122;5.420;2023-01-19T14:10:44;4.43;;;0.30;;
71769;SDS011;66386;52.122;5.420;2023-01-19T14:13:29;1.38;;;0.10;;
71769;SDS011;66386;52.122;5.420;2023-01-19T14:16:02;1.30;;;0.10;;
71769;SDS011;66386;52.122;5.420;2023-01-19T14:18:31;1.30;;;0.10;;
71769;SDS011;66386;52.122;5.420;2023-01-19T14:29:46;1.10;;;0.13;;
71769;SDS011;66386;52.122;5.420;2023-01-19T14:32:14;2.28;;;0.30;;
71769;SDS011;66386;52.122;5.420;2023-01-19T14:34:48;3.65;;;0.40;;
71769;SDS011;66386;52.122;5.420;2023-01-19T14:37:17;4.20;;;0.20;;
71769;SDS011;66386;52.122;5.420;2023-01-19T14:42:22;2.63;;;0.38;;
71769;SDS011;66386;52.122;5.420;2023-01-19T14:44:52;2.80;;;0.30;;
71769;SDS011;66386;52.122;5.420;2023-01-19T14:47:31;2.63;;;0.30;;
71769;SDS011;66386;52.122;5.420;2023-01-19T14:50:04;1.97;;;0.20;;
71769;SDS011;66386;52.122;5.420;2023-01-19T14:52:56;0.52;;;0.20;;
71769;SDS011;66386;52.122;5.420;2023-01-19T14:58:16;8.65;;;0.47;;
71769;SDS011;66386;52.122;5.420;2023-01-19T15:00:45;2.20;;;0.30;;
71769;SDS011;66386;52.122;5.420;2023-01-19T15:03:13;4.97;;;0.40;;
71769;SDS011;66386;52.122;5.420;2023-01-19T15:05:41;1.45;;;0.22;;
71769;SDS011;66386;52.122;5.420;2023-01-19T15:08:11;3.35;;;0.30;;
71769;SDS011;66386;52.122;5.420;2023-01-19T15:10:41;2.90;;;0.32;;
71769;SDS011;66386;52.122;5.420;2023-01-19T15:13:14;4.78;;;0.20;;
71769;SDS011;66386;52.122;5.420;2023-01-19T15:15:43;1.97;;;0.20;;
71769;SDS011;66386;52.122;5.420;2023-01-19T15:18:14;1.15;;;0.17;;
71769;SDS011;66386;52.122;5.420;2023-01-19T15:20:43;3.13;;;0.45;;
71769;SDS011;66386;52.122;5.420;2023-01-19T15:23:10;1.58;;;0.20;;
71769;SDS011;66386;52.122;5.420;2023-01-19T15:25:37;2.20;;;0.40;;
71769;SDS011;66386;52.122;5.420;2023-01-19T15:28:09;5.40;;;0.27;;
71769;SDS011;66386;52.122;5.420;2023-01-19T15:30:39;0.35;;;0.10;;
71769;SDS011;66386;52.122;5.420;2023-01-19T15:33:08;2.50;;;0.45;;
71769;SDS011;66386;52.122;5.420;2023-01-19T15:35:46;3.95;;;0.32;;
71769;SDS011;66386;52.122;5.420;2023-01-19T15:38:13;2.72;;;0.20;;
71769;SDS011;66386;52.122;5.420;2023-01-19T15:40:40;1.10;;;0.27;;
71769;SDS011;66386;52.122;5.420;2023-01-19T15:43:09;0.43;;;0.20;;
71769;SDS011;66386;52.122;5.420;2023-01-19T15:45:37;2.20;;;0.20;;
71769;SDS011;66386;52.122;5.420;2023-01-19T15:48:09;2.00;;;0.20;;
71769;SDS011;66386;52.122;5.420;2023-01-19T15:50:40;1.05;;;0.50;;
71769;SDS011;66386;52.122;5.420;2023-01-19T15:53:15;3.37;;;0.50;;
71769;SDS011;66386;52.122;5.420;2023-01-19T15:55:47;3.83;;;0.68;;
71769;SDS011;66386;52.122;5.420;2023-01-19T15:58:14;2.28;;;0.30;;
71769;SDS011;66386;52.122;5.420;2023-01-19T16:00:41;1.83;;;0.50;;
71769;SDS011;66386;52.122;5.420;2023-01-19T16:03:08;3.85;;;0.77;;
71769;SDS011;66386;52.122;5.420;2023-01-19T16:05:35;3.00;;;0.90;;
71769;SDS011;66386;52.122;5.420;2023-01-19T16:08:09;2.45;;;0.30;;
71769;SDS011;66386;52.122;5.420;2023-01-19T16:10:36;1.33;;;0.30;;
71769;SDS011;66386;52.122;5.420;2023-01-19T16:13:02;4.70;;;0.50;;
71769;SDS011;66386;52.122;5.420;2023-01-19T16:15:29;3.22;;;0.65;;
71769;SDS011;66386;52.122;5.420;2023-01-19T16:17:56;10.97;;;1.00;;
71769;SDS011;66386;52.122;5.420;2023-01-19T16:20:23;1.80;;;0.63;;
71769;SDS011;66386;52.122;5.420;2023-01-19T16:22:49;3.35;;;0.55;;
71769;SDS011;66386;52.122;5.420;2023-01-19T16:25:16;3.20;;;0.55;;
71769;SDS011;66386;52.122;5.420;2023-01-19T16:27:42;9.98;;;0.98;;
71769;SDS011;66386;52.122;5.420;2023-01-19T16:30:12;5.23;;;0.73;;
71769;SDS011;66386;52.122;5.420;2023-01-19T16:32:39;2.60;;;1.00;;
71769;SDS011;66386;52.122;5.420;2023-01-19T16:35:06;2.95;;;0.50;;
71769;SDS011;66386;52.122;5.420;2023-01-19T16:37:33;5.05;;;0.73;;
71769;SDS011;66386;52.122;5.420;2023-01-19T16:39:59;3.58;;;0.77;;
71769;SDS011;66386;52.122;5.420;2023-01-19T16:42:26;3.53;;;0.80;;
71769;SDS011;66386;52.122;5.420;2023-01-19T16:44:52;4.72;;;1.30;;
71769;SDS011;66386;52.122;5.420;2023-01-19T16:47:19;2.30;;;0.82;;
71769;SDS011;66386;52.122;5.420;2023-01-19T16:49:46;3.22;;;0.77;;
71769;SDS011;66386;52.122;5.420;2023-01-19T16:52:12;4.43;;;0.60;;
71769;SDS011;66386;52.122;5.420;2023-01-19T16:54:42;3.90;;;0.77;;
71769;SDS011;66386;52.122;5.420;2023-01-19T16:57:09;1.95;;;0.40;;
71769;SDS011;66386;52.122;5.420;2023-01-19T16:59:36;3.53;;;0.50;;